createdAt,value
2023-02-13T00:01:29.078Z,7.43
2023-02-13T00:03:56.935Z,10.07
2023-02-13T00:06:24.724Z,8.75
2023-02-13T00:08:52.977Z,9.48
2023-02-13T00:11:21.504Z,6.55
2023-02-13T00:13:50.441Z,8.18
2023-02-13T00:16:18.463Z,7.63
2023-02-13T00:18:46.361Z,8.15
2023-02-13T00:21:14.703Z,8.35
2023-02-13T00:23:42.476Z,6.90
2023-02-13T00:26:15.741Z,11.05
2023-02-13T00:28:46.640Z,9.07
2023-02-13T00:31:18.980Z,7.57
2023-02-13T00:33:47.649Z,7.07
2023-02-13T00:36:21.142Z,7.30
2023-02-13T00:38:49.600Z,6.13
2023-02-13T00:41:17.974Z,8.40
2023-02-13T00:43:47.596Z,8.48
2023-02-13T00:46:16.704Z,8.57
2023-02-13T00:48:44.981Z,7.40
2023-02-13T00:51:13.034Z,6.40
2023-02-13T00:53:41.544Z,7.55
2023-02-13T00:56:09.884Z,9.68
2023-02-13T00:58:39.092Z,6.70
2023-02-13T01:01:07.201Z,6.03
2023-02-13T01:03:35.836Z,6.43
2023-02-13T01:06:03.974Z,6.80
2023-02-13T01:08:32.762Z,5.80
2023-02-13T01:11:00.888Z,9.15
2023-02-13T01:13:29.964Z,7.03
2023-02-13T01:15:57.691Z,5.07
2023-02-13T01:18:27.976Z,6.30
2023-02-13T01:21:04.175Z,5.07
2023-02-13T01:23:39.051Z,6.15
2023-02-13T01:26:11.381Z,5.25
2023-02-13T01:28:39.499Z,5.15
2023-02-13T01:31:07.724Z,7.13
2023-02-13T01:33:36.262Z,6.82
2023-02-13T01:36:12.742Z,7.97
2023-02-13T01:38:41.078Z,7.97
2023-02-13T01:41:09.580Z,8.07
2023-02-13T01:43:47.956Z,7.95
2023-02-13T01:46:22.590Z,9.07
2023-02-13T01:48:54.130Z,7.68
2023-02-13T01:51:29.948Z,10.38
2023-02-13T01:54:15.762Z,9.38
2023-02-13T01:56:50.740Z,8.63
2023-02-13T01:59:24.273Z,11.55
2023-02-13T02:01:53.517Z,11.35
2023-02-13T02:04:31.275Z,9.68
2023-02-13T02:07:07.141Z,10.38
2023-02-13T02:09:39.827Z,13.15
2023-02-13T02:12:15.069Z,10.00
2023-02-13T02:14:43.852Z,8.38
2023-02-13T02:17:12.467Z,9.27
2023-02-13T02:20:18.704Z,9.30
2023-02-13T02:23:08.524Z,10.77
2023-02-13T02:25:39.189Z,8.82
2023-02-13T02:28:31.872Z,8.35
2023-02-13T02:31:12.908Z,9.95
2023-02-13T02:33:59.369Z,9.85
2023-02-13T02:36:30.342Z,10.20
2023-02-13T02:38:59.702Z,10.25
2023-02-13T02:41:43.472Z,9.38
2023-02-13T02:45:07.920Z,10.35
2023-02-13T02:47:57.588Z,10.13
2023-02-13T02:50:28.814Z,10.63
2023-02-13T02:53:15.099Z,11.07
2023-02-13T02:56:00.872Z,10.40
2023-02-13T02:59:00.828Z,9.73
2023-02-13T03:01:51.263Z,9.60
2023-02-13T03:04:55.341Z,9.75
2023-02-13T03:07:23.143Z,9.63
2023-02-13T03:10:16.528Z,9.57
2023-02-13T03:13:19.412Z,8.38
2023-02-13T03:16:09.689Z,9.18
2023-02-13T03:18:59.321Z,10.38
2023-02-13T03:21:54.861Z,8.70
2023-02-13T03:24:28.464Z,8.77
2023-02-13T03:27:05.526Z,9.48
2023-02-13T03:29:57.413Z,7.85
2023-02-13T03:32:58.066Z,8.35
2023-02-13T03:36:16.684Z,8.05
2023-02-13T03:38:58.263Z,9.77
2023-02-13T03:41:33.807Z,9.02
2023-02-13T03:44:23.242Z,9.35
2023-02-13T03:46:55.166Z,8.48
2023-02-13T03:49:52.047Z,10.50
2023-02-13T03:52:26.460Z,9.45
2023-02-13T03:55:19.830Z,8.48
2023-02-13T03:58:08.519Z,9.45
2023-02-13T04:00:43.382Z,7.53
2023-02-13T04:03:42.975Z,8.45
2023-02-13T04:06:17.529Z,7.90
2023-02-13T04:08:45.637Z,8.05
2023-02-13T04:11:26.399Z,10.38
2023-02-13T04:14:00.310Z,9.40
2023-02-13T04:16:41.980Z,8.93
2023-02-13T04:19:11.492Z,8.65
2023-02-13T04:21:40.937Z,7.90
2023-02-13T04:24:09.669Z,7.88
2023-02-13T04:26:43.541Z,10.43
2023-02-13T04:29:11.570Z,7.50
2023-02-13T04:31:40.526Z,9.20
2023-02-13T04:34:08.473Z,8.80
2023-02-13T04:36:36.344Z,8.77
2023-02-13T04:39:04.791Z,8.50
2023-02-13T04:41:32.789Z,8.57
2023-02-13T04:44:00.814Z,8.65
2023-02-13T04:46:29.711Z,9.70
2023-02-13T04:48:57.546Z,9.07
2023-02-13T04:51:25.310Z,8.85
2023-02-13T04:53:53.353Z,9.50
2023-02-13T04:56:21.976Z,8.98
2023-02-13T04:58:49.930Z,8.68
2023-02-13T05:01:18.913Z,7.68
2023-02-13T05:03:46.732Z,7.95
2023-02-13T05:06:14.704Z,8.02
2023-02-13T05:08:44.304Z,7.25
2023-02-13T05:11:12.220Z,7.63
2023-02-13T05:13:40.037Z,8.55
2023-02-13T05:16:07.916Z,7.63
2023-02-13T05:18:35.732Z,7.68
2023-02-13T05:21:22.115Z,9.02
2023-02-13T05:23:49.995Z,16.90
2023-02-13T05:26:17.866Z,18.83
2023-02-13T05:29:04.228Z,14.23
2023-02-13T05:31:32.093Z,12.48
2023-02-13T05:33:59.963Z,10.75
2023-02-13T05:36:28.066Z,12.73
2023-02-13T05:38:55.772Z,11.13
2023-02-13T05:41:23.485Z,13.32
2023-02-13T05:43:51.300Z,16.13
2023-02-13T05:46:19.353Z,18.00
2023-02-13T05:48:47.176Z,11.75
2023-02-13T05:51:15.509Z,15.25
2023-02-13T05:53:43.178Z,15.82
2023-02-13T05:56:10.958Z,15.10
2023-02-13T05:58:39.416Z,12.68
2023-02-13T06:01:08.052Z,12.00
2023-02-13T06:03:37.333Z,13.70
2023-02-13T06:06:05.542Z,13.80
2023-02-13T06:08:34.220Z,11.05
2023-02-13T06:11:02.779Z,15.77
2023-02-13T06:13:32.367Z,15.35
2023-02-13T06:16:01.232Z,17.25
2023-02-13T06:18:29.017Z,22.63
2023-02-13T06:20:57.285Z,22.67
2023-02-13T06:23:25.768Z,21.10
2023-02-13T06:25:53.887Z,13.82
2023-02-13T06:28:22.418Z,22.20
2023-02-13T06:30:50.324Z,20.40
2023-02-13T06:33:18.165Z,15.35
2023-02-13T06:35:45.930Z,22.42
2023-02-13T06:38:14.255Z,16.95
2023-02-13T06:40:43.514Z,14.75
2023-02-13T06:43:11.432Z,15.52
2023-02-13T06:45:39.486Z,13.25
2023-02-13T06:48:08.124Z,13.07
2023-02-13T06:50:36.433Z,15.32
2023-02-13T06:53:04.294Z,16.55
2023-02-13T06:55:32.149Z,12.63
2023-02-13T06:58:00.866Z,14.10
2023-02-13T07:00:29.127Z,17.75
2023-02-13T07:03:06.682Z,13.65
2023-02-13T07:08:03.269Z,12.88
2023-02-13T07:10:31.169Z,14.52
2023-02-13T07:13:05.672Z,16.65
2023-02-13T07:15:35.779Z,12.70
2023-02-13T07:18:05.896Z,13.25
2023-02-13T07:20:34.851Z,10.70
2023-02-13T07:23:05.877Z,12.50
2023-02-13T07:25:34.990Z,10.77
2023-02-13T07:28:11.114Z,12.10
2023-02-13T07:30:39.024Z,13.20
2023-02-13T07:33:06.823Z,15.25
2023-02-13T07:35:36.382Z,12.32
2023-02-13T07:38:05.015Z,15.23
2023-02-13T07:40:34.610Z,13.85
2023-02-13T07:43:02.743Z,13.75
2023-02-13T07:45:31.857Z,13.57
2023-02-13T07:48:00.355Z,17.30
2023-02-13T07:50:29.081Z,14.38
2023-02-13T07:53:01.889Z,16.10
2023-02-13T07:55:31.166Z,16.23
2023-02-13T07:58:00.729Z,14.43
2023-02-13T08:00:28.706Z,15.68
2023-02-13T08:03:03.615Z,14.93
2023-02-13T08:05:33.600Z,17.63
2023-02-13T08:08:01.705Z,12.95
2023-02-13T08:10:48.160Z,20.15
2023-02-13T08:13:17.128Z,14.65
2023-02-13T08:15:45.867Z,14.93
2023-02-13T08:18:13.804Z,18.48
2023-02-13T08:20:41.881Z,17.50
2023-02-13T08:23:12.320Z,15.77
2023-02-13T08:25:40.263Z,16.83
2023-02-13T08:28:09.399Z,15.65
2023-02-13T08:30:38.542Z,14.25
2023-02-13T08:33:06.401Z,14.07
2023-02-13T08:35:34.232Z,14.35
2023-02-13T08:38:03.562Z,15.45
2023-02-13T08:40:32.343Z,18.65
2023-02-13T08:43:06.046Z,15.45
2023-02-13T08:45:34.667Z,16.80
2023-02-13T08:48:04.413Z,16.98
2023-02-13T08:50:32.544Z,16.30
2023-02-13T08:53:00.653Z,16.33
2023-02-13T08:55:30.047Z,19.83
2023-02-13T08:58:02.648Z,18.95
2023-02-13T09:00:32.686Z,18.63
2023-02-13T09:03:02.911Z,15.25
2023-02-13T09:05:32.900Z,16.77
2023-02-13T09:08:03.049Z,18.85
2023-02-13T09:10:33.933Z,19.92
2023-02-13T09:13:01.759Z,24.40
2023-02-13T09:15:31.772Z,17.30
2023-02-13T09:18:00.056Z,21.92
2023-02-13T09:20:28.010Z,19.95
2023-02-13T09:22:57.058Z,20.77
2023-02-13T09:25:25.648Z,21.13
2023-02-13T09:27:53.836Z,22.95
2023-02-13T09:30:24.402Z,19.23
2023-02-13T09:32:53.899Z,20.50
2023-02-13T09:35:22.486Z,22.88
2023-02-13T09:37:50.455Z,20.63
2023-02-13T09:40:21.078Z,18.10
2023-02-13T09:42:50.799Z,15.82
2023-02-13T09:45:21.350Z,25.85
2023-02-13T09:47:51.457Z,29.05
2023-02-13T09:50:25.834Z,19.50
2023-02-13T09:52:55.886Z,22.20
2023-02-13T09:55:26.707Z,19.40
2023-02-13T09:58:16.596Z,25.27
2023-02-13T10:00:50.936Z,18.30
2023-02-13T10:03:27.408Z,21.00
2023-02-13T10:06:36.535Z,21.35
2023-02-13T10:09:17.668Z,18.42
2023-02-13T10:12:07.871Z,24.90
2023-02-13T10:14:48.231Z,19.13
2023-02-13T10:17:29.053Z,14.18
2023-02-13T10:20:03.419Z,18.33
2023-02-13T10:22:41.184Z,14.88
2023-02-13T10:25:22.872Z,12.60
2023-02-13T10:27:57.624Z,16.48
2023-02-13T10:30:34.007Z,22.10
2023-02-13T10:33:19.956Z,19.02
2023-02-13T10:36:07.313Z,12.73
2023-02-13T10:38:41.140Z,13.75
2023-02-13T10:41:17.704Z,11.10
2023-02-13T10:43:57.455Z,11.70
2023-02-13T10:47:03.118Z,10.25
2023-02-13T10:49:36.788Z,12.25
2023-02-13T10:52:18.135Z,10.02
2023-02-13T10:54:48.022Z,11.23
2023-02-13T10:57:37.108Z,8.80
2023-02-13T11:00:14.873Z,10.10
2023-02-13T11:02:43.793Z,10.02
2023-02-13T11:05:24.492Z,10.52
2023-02-13T11:07:52.630Z,10.02
2023-02-13T11:10:23.765Z,9.00
2023-02-13T11:12:52.313Z,12.05
2023-02-13T11:15:26.120Z,13.90
2023-02-13T11:17:57.903Z,8.65
2023-02-13T11:20:37.010Z,12.07
2023-02-13T11:23:36.138Z,9.38
2023-02-13T11:26:15.818Z,8.93
2023-02-13T11:28:58.346Z,11.82
2023-02-13T11:31:33.234Z,10.68
2023-02-13T11:34:26.033Z,10.57
2023-02-13T11:37:07.677Z,14.27
2023-02-13T11:39:35.466Z,10.18
2023-02-13T11:42:03.329Z,11.90
2023-02-13T11:44:33.280Z,10.52
2023-02-13T11:47:05.321Z,11.05
2023-02-13T11:49:39.643Z,12.85
2023-02-13T11:52:23.276Z,11.88
2023-02-13T11:55:05.331Z,10.55
2023-02-13T11:57:36.116Z,12.38
2023-02-13T12:00:31.220Z,11.60
2023-02-13T12:03:00.151Z,11.15
2023-02-13T12:05:28.698Z,12.38
2023-02-13T12:08:01.535Z,12.20
2023-02-13T12:10:33.451Z,12.27
2023-02-13T12:13:21.832Z,13.98
2023-02-13T12:16:00.770Z,10.27
2023-02-13T12:18:37.292Z,11.90
2023-02-13T12:21:10.319Z,13.38
2023-02-13T12:24:12.618Z,11.50
2023-02-13T12:26:45.610Z,11.88
2023-02-13T12:29:28.589Z,11.23
2023-02-13T12:32:05.805Z,12.35
2023-02-13T12:35:22.905Z,10.48
2023-02-13T12:37:50.733Z,14.68
2023-02-13T12:40:51.882Z,10.00
2023-02-13T12:43:34.989Z,10.68
2023-02-13T12:46:27.595Z,8.98
2023-02-13T12:49:21.568Z,11.20
2023-02-13T12:52:04.494Z,18.27
2023-02-13T12:54:37.627Z,18.23
2023-02-13T12:57:17.948Z,16.67
2023-02-13T12:59:45.809Z,17.65
2023-02-13T13:02:38.572Z,12.50
2023-02-13T13:05:13.594Z,11.18
2023-02-13T13:08:27.083Z,13.70
2023-02-13T13:11:22.583Z,10.48
2023-02-13T13:13:56.491Z,9.90
2023-02-13T13:16:33.752Z,11.55
2023-02-13T13:19:18.507Z,12.55
2023-02-13T13:22:00.301Z,13.77
2023-02-13T13:24:31.095Z,13.77
2023-02-13T13:27:00.886Z,12.80
2023-02-13T13:29:55.282Z,12.48
2023-02-13T13:32:23.426Z,12.85
2023-02-13T13:34:52.274Z,12.23
2023-02-13T13:38:12.796Z,12.07
2023-02-13T13:40:51.799Z,9.05
2023-02-13T13:43:37.814Z,10.07
2023-02-13T13:46:23.720Z,9.60
2023-02-13T13:49:11.765Z,11.52
2023-02-13T13:51:39.741Z,14.18
2023-02-13T13:54:10.360Z,10.18
2023-02-13T13:57:02.386Z,8.73
2023-02-13T13:59:33.175Z,11.27
2023-02-13T14:02:21.204Z,11.68
2023-02-13T14:05:26.022Z,10.73
2023-02-13T14:08:24.796Z,9.52
2023-02-13T14:10:58.481Z,9.75
2023-02-13T14:13:36.797Z,12.25
2023-02-13T14:16:06.795Z,12.60
2023-02-13T14:18:35.375Z,11.90
2023-02-13T14:21:04.309Z,10.88
2023-02-13T14:23:49.987Z,13.15
2023-02-13T14:26:17.747Z,10.13
2023-02-13T14:28:51.721Z,15.70
2023-02-13T14:31:33.366Z,13.45
2023-02-13T14:34:27.195Z,13.25
2023-02-13T14:37:21.225Z,11.20
2023-02-13T14:40:15.791Z,10.45
2023-02-13T14:42:47.345Z,13.25
2023-02-13T14:45:17.786Z,7.78
2023-02-13T14:47:54.315Z,9.13
2023-02-13T14:50:53.931Z,11.47
2023-02-13T14:53:30.297Z,8.07
2023-02-13T14:56:14.284Z,10.07
2023-02-13T14:58:51.512Z,10.52
2023-02-13T15:04:13.509Z,10.02
2023-02-13T15:06:44.344Z,8.63
2023-02-13T15:09:39.206Z,9.15
2023-02-13T15:12:37.491Z,8.68
2023-02-13T15:15:45.768Z,10.82
2023-02-13T15:18:24.404Z,8.53
2023-02-13T15:20:58.455Z,9.38
2023-02-13T15:23:30.282Z,10.60
2023-02-13T15:26:05.750Z,9.38
2023-02-13T15:28:36.037Z,8.55
2023-02-13T15:31:07.220Z,11.55
2023-02-13T15:33:51.108Z,7.82
2023-02-13T15:36:25.731Z,8.40
2023-02-13T15:39:10.409Z,7.35
2023-02-13T15:41:42.721Z,7.80
2023-02-13T15:44:18.516Z,7.40
2023-02-13T15:46:54.164Z,7.80
2023-02-13T15:49:28.936Z,8.27
2023-02-13T15:52:10.176Z,11.20
2023-02-13T15:54:51.203Z,10.80
2023-02-13T15:57:20.244Z,10.07
2023-02-13T15:59:49.051Z,11.65
2023-02-13T16:02:21.262Z,13.23
2023-02-13T16:04:52.774Z,8.63
2023-02-13T16:07:21.791Z,10.02
2023-02-13T16:09:49.761Z,7.63
2023-02-13T16:12:26.013Z,9.07
2023-02-13T16:14:57.666Z,9.45
2023-02-13T16:17:37.878Z,8.65
2023-02-13T16:20:20.285Z,9.23
2023-02-13T16:23:03.087Z,8.60
2023-02-13T16:25:40.058Z,9.88
2023-02-13T16:28:25.744Z,9.15
2023-02-13T16:31:02.885Z,8.85
2023-02-13T16:36:10.258Z,10.63
2023-02-13T16:38:40.887Z,9.50
2023-02-13T16:41:18.098Z,9.75
2023-02-13T16:43:53.682Z,8.23
2023-02-13T16:46:41.839Z,11.07
2023-02-13T16:49:10.252Z,10.00
2023-02-13T16:52:08.130Z,9.52
2023-02-13T16:54:57.484Z,8.77
2023-02-13T16:57:31.186Z,9.10
2023-02-13T17:00:07.382Z,9.82
2023-02-13T17:02:43.509Z,9.07
2023-02-13T17:05:11.416Z,12.80
2023-02-13T17:07:40.554Z,12.82
2023-02-13T17:10:18.163Z,10.10
2023-02-13T17:12:46.539Z,9.80
2023-02-13T17:15:18.555Z,9.57
2023-02-13T17:17:47.143Z,9.57
2023-02-13T17:20:30.633Z,9.32
2023-02-13T17:23:01.088Z,9.73
2023-02-13T17:25:30.375Z,10.05
2023-02-13T17:28:01.136Z,13.02
2023-02-13T17:30:32.611Z,11.35
2023-02-13T17:33:07.416Z,9.75
2023-02-13T17:35:36.241Z,10.13
2023-02-13T17:38:06.362Z,9.68
2023-02-13T17:40:34.191Z,8.98
2023-02-13T17:43:02.490Z,9.82
2023-02-13T17:45:32.806Z,10.27
2023-02-13T17:48:01.068Z,10.80
2023-02-13T17:50:31.412Z,12.95
2023-02-13T17:53:04.326Z,11.95
2023-02-13T17:55:34.567Z,10.70
2023-02-13T17:58:02.741Z,10.55
2023-02-13T18:00:33.842Z,12.00
2023-02-13T18:03:01.758Z,11.85
2023-02-13T18:05:29.717Z,13.10
2023-02-13T18:07:57.465Z,11.30
2023-02-13T18:10:30.289Z,10.70
2023-02-13T18:13:04.103Z,13.35
2023-02-13T18:15:45.209Z,11.95
2023-02-13T18:18:17.223Z,12.63
2023-02-13T18:20:45.751Z,12.50
2023-02-13T18:23:14.345Z,12.32
2023-02-13T18:25:42.206Z,12.90
2023-02-13T18:28:10.576Z,13.57
2023-02-13T18:30:42.011Z,13.27
2023-02-13T18:33:10.376Z,11.65
2023-02-13T18:35:38.387Z,12.00
2023-02-13T18:38:06.244Z,11.77
2023-02-13T18:40:35.052Z,10.77
2023-02-13T18:43:03.385Z,11.07
2023-02-13T18:45:31.261Z,10.77
2023-02-13T18:47:59.110Z,9.93
2023-02-13T18:50:27.542Z,10.38
2023-02-13T18:52:56.962Z,11.85
2023-02-13T18:55:24.865Z,14.60
2023-02-13T18:57:53.777Z,13.18
2023-02-13T19:00:23.464Z,11.70
2023-02-13T19:02:52.105Z,15.35
2023-02-13T19:05:21.167Z,17.90
2023-02-13T19:07:48.986Z,17.23
2023-02-13T19:10:17.096Z,18.88
2023-02-13T19:12:44.853Z,13.25
2023-02-13T19:15:12.646Z,17.52
2023-02-13T19:17:40.460Z,16.45
2023-02-13T19:20:11.197Z,17.52
2023-02-13T19:22:39.417Z,16.00
2023-02-13T19:25:07.572Z,16.85
2023-02-13T19:27:38.578Z,15.40
2023-02-13T19:30:10.888Z,16.00
2023-02-13T19:32:38.727Z,14.40
2023-02-13T19:35:06.780Z,21.23
2023-02-13T19:37:43.312Z,20.00
2023-02-13T19:40:13.502Z,16.13
2023-02-13T19:42:42.014Z,15.57
2023-02-13T19:45:10.875Z,16.80
2023-02-13T19:47:38.714Z,16.00
2023-02-13T19:50:07.434Z,14.10
2023-02-13T19:52:35.250Z,15.40
2023-02-13T19:55:03.337Z,15.98
2023-02-13T19:57:31.175Z,18.17
2023-02-13T20:00:01.982Z,15.95
2023-02-13T20:02:39.732Z,17.13
2023-02-13T20:05:09.289Z,15.50
2023-02-13T20:07:37.286Z,15.82
2023-02-13T20:10:07.176Z,16.73
2023-02-13T20:12:35.220Z,17.77
2023-02-13T20:15:05.134Z,14.85
2023-02-13T20:17:40.483Z,14.68
2023-02-13T20:20:08.932Z,15.18
2023-02-13T20:22:38.662Z,15.13
2023-02-13T20:25:10.052Z,16.63
2023-02-13T20:27:42.408Z,18.83
2023-02-13T20:30:14.789Z,20.40
2023-02-13T20:32:44.226Z,19.25
2023-02-13T20:35:11.927Z,18.88
2023-02-13T20:37:39.663Z,16.45
2023-02-13T20:40:17.550Z,15.60
2023-02-13T20:42:45.797Z,14.45
2023-02-13T20:45:15.645Z,15.60
2023-02-13T20:47:46.385Z,36.90
2023-02-13T20:50:14.247Z,38.85
2023-02-13T20:52:42.009Z,38.67
2023-02-13T20:55:09.890Z,34.38
2023-02-13T20:57:38.174Z,26.88
2023-02-13T21:00:09.073Z,21.55
2023-02-13T21:02:38.234Z,20.30
2023-02-13T21:05:06.145Z,18.35
2023-02-13T21:07:34.144Z,17.50
2023-02-13T21:10:02.299Z,18.23
2023-02-13T21:12:30.156Z,17.17
2023-02-13T21:14:58.025Z,17.38
2023-02-13T21:17:25.861Z,18.25
2023-02-13T21:19:53.730Z,16.65
2023-02-13T21:22:21.782Z,18.45
2023-02-13T21:24:50.039Z,20.40
2023-02-13T21:27:17.987Z,18.58
2023-02-13T21:29:47.062Z,16.73
2023-02-13T21:32:15.225Z,16.85
2023-02-13T21:34:43.553Z,17.20
2023-02-13T21:37:11.278Z,17.65
2023-02-13T21:39:40.139Z,18.75
2023-02-13T21:42:07.905Z,16.98
2023-02-13T21:44:35.678Z,19.08
2023-02-13T21:47:04.983Z,17.42
2023-02-13T21:49:37.096Z,19.42
2023-02-13T21:52:04.883Z,20.33
2023-02-13T21:54:33.014Z,17.50
2023-02-13T21:57:00.793Z,18.00
2023-02-13T21:59:28.725Z,18.55
2023-02-13T22:01:58.382Z,18.98
2023-02-13T22:04:27.171Z,22.25
2023-02-13T22:06:55.198Z,23.00
2023-02-13T22:09:23.781Z,25.40
2023-02-13T22:11:54.590Z,29.92
2023-02-13T22:14:22.585Z,25.70
2023-02-13T22:16:52.641Z,24.25
2023-02-13T22:19:22.965Z,22.25
2023-02-13T22:21:50.852Z,25.33
2023-02-13T22:24:19.077Z,22.40
2023-02-13T22:26:46.979Z,22.67
2023-02-13T22:29:17.957Z,22.30
2023-02-13T22:31:47.013Z,21.40
2023-02-13T22:34:15.749Z,20.42
2023-02-13T22:36:44.107Z,23.00
2023-02-13T22:39:12.804Z,23.23
2023-02-13T22:41:41.266Z,22.33
2023-02-13T22:44:09.129Z,22.35
2023-02-13T22:46:36.984Z,21.33
2023-02-13T22:49:06.351Z,21.30
2023-02-13T22:51:36.545Z,21.63
2023-02-13T22:54:04.923Z,22.98
2023-02-13T22:56:33.422Z,22.20
2023-02-13T22:59:01.496Z,24.25
2023-02-13T23:01:30.120Z,23.48
2023-02-13T23:03:59.049Z,24.08
2023-02-13T23:06:27.299Z,25.08
2023-02-13T23:08:56.386Z,22.42
2023-02-13T23:11:46.226Z,21.67
2023-02-13T23:14:14.982Z,24.42
2023-02-13T23:17:03.212Z,27.02
2023-02-13T23:19:31.456Z,27.67
2023-02-13T23:21:59.750Z,23.08
2023-02-13T23:24:29.412Z,23.40
2023-02-13T23:26:57.637Z,25.70
2023-02-13T23:29:25.701Z,27.88
2023-02-13T23:31:54.556Z,23.83
2023-02-13T23:34:22.704Z,26.00
2023-02-13T23:36:52.179Z,27.30
2023-02-13T23:39:21.997Z,25.73
2023-02-13T23:41:51.659Z,26.33
2023-02-13T23:44:19.878Z,26.40
2023-02-13T23:46:47.818Z,24.95
2023-02-13T23:49:15.861Z,27.08
2023-02-13T23:51:43.744Z,27.83
2023-02-13T23:54:21.973Z,28.17
2023-02-13T23:56:54.094Z,29.65
2023-02-13T23:59:23.688Z,27.08
